Airfield :
LOGIN :

Register | Disclaimer

   EN    FR    IT 

 










Legend :    VFR   Marginal VFR   IFR   Intensive IFR   Very Intensive IFR
Visi :
Ceiling :
>= 8 km
>= 3000ft
5 to 8 km
1000 to 3000 ft
1500m to 5 km
500 to 1000 ft
800 to 1500m
200 to 500 ft
< 800m
< 200 ft
Symbols :   Thunderstorms  Fog  Heavy snow  Heavy precipitations  Wind > 20 kt
SIGMETs :     Misc.  Thunderstorms  Icing  Turbulence  Mountain Waves  Volcanic Ashes







- Airport Elevation : 587 ft
- IATA code : XCR
- Download approach charts


LFOK - Chalons Vatry

CURRENT METAR :
  • 261100Z AUTO 25009KT 8000 BKN022 BKN031 19/13 Q1018 NOSIG

EXPIRED METARs :
  • 261030Z AUTO 24009KT 8000 BKN022 BKN030 19/14 Q1018 NOSIG
  • 261000Z AUTO 24009KT 210V270 8000 BKN016 BKN023 18/14 Q1018 NOSIG
  • 260930Z AUTO 20008KT 8000 SCT013 18/14 Q1018 NOSIG
  • 260900Z AUTO 21007KT 8000 SCT008 16/14 Q1018 NOSIG
  • 260830Z AUTO 21007KT 170V240 7000 BKN005 15/13 Q1018 BECMG NSC

TAF TAF LFOK
Valid from the 26 at 06:00 until the 27 at 06:00 UTC


260500Z 2606/2706 VRB02KT 3000 BR NSC
TEMPO 2606/2607 0500 BCFG
BECMG 2607/2609 24012KT 9999 NSW
BECMG 2618/2621 VRB02KT
TEMPO 2701/2704 4000 RA BKN012
TEMPO 2704/2706 4000 DZ OVC007
No reported NOTAMs for that airfield.



MET'MAP, your aeronautical weather chart ! - Copyright ORBIFLY December 2007 - Disclaimer

ORBIFLY MET'MAP TEAM :

Programming & Development : Alexandra Zaïnal
Concept & Development : Baudouin d'Aumeries
Co-Development & Prog : Marc-Olivier Méhu
Technical & hardware support : Manuel Goepfert

Contact : metmap@orbifly.com




SOURCES & CREDITS :

   NOAA